sensor_id;sensor_type;location;lat;lon;timestamp;pressure;altitude;pressure_sealevel;temperature;humidity
34081;BME280;20358;50.272;19.026;2022-09-21T00:31:00;98641.69;;;8.70;87.11
34081;BME280;20358;50.272;19.026;2022-09-21T00:39:17;98649.09;;;8.59;87.62
34081;BME280;20358;50.272;19.026;2022-09-21T00:42:24;98647.44;;;8.58;87.75
34081;BME280;20358;50.272;19.026;2022-09-21T00:45:31;98652.66;;;8.58;87.96
34081;BME280;20358;50.272;19.026;2022-09-21T00:48:40;98659.56;;;8.59;87.99
34081;BME280;20358;50.272;19.026;2022-09-21T00:51:50;98655.97;;;8.62;88.12
34081;BME280;20358;50.272;19.026;2022-09-21T00:55:01;98660.22;;;8.64;88.08
34081;BME280;20358;50.272;19.026;2022-09-21T00:58:10;98669.63;;;8.68;88.11
34081;BME280;20358;50.272;19.026;2022-09-21T01:01:17;98661.69;;;8.71;88.05
34081;BME280;20358;50.272;19.026;2022-09-21T01:04:27;98664.25;;;8.73;88.00
34081;BME280;20358;50.272;19.026;2022-09-21T01:07:36;98665.88;;;8.75;87.93
34081;BME280;20358;50.272;19.026;2022-09-21T01:10:55;98663.13;;;8.78;88.00
34081;BME280;20358;50.272;19.026;2022-09-21T01:14:16;98663.72;;;8.85;88.00
34081;BME280;20358;50.272;19.026;2022-09-21T01:17:37;98661.81;;;8.88;87.93
34081;BME280;20358;50.272;19.026;2022-09-21T01:21:19;98661.63;;;8.93;87.79
34081;BME280;20358;50.272;19.026;2022-09-21T01:24:49;98667.56;;;8.96;87.62
34081;BME280;20358;50.272;19.026;2022-09-21T01:28:03;98669.47;;;8.93;87.33
34081;BME280;20358;50.272;19.026;2022-09-21T01:31:20;98662.47;;;8.93;87.64
34081;BME280;20358;50.272;19.026;2022-09-21T01:34:30;98659.81;;;8.95;87.51
34081;BME280;20358;50.272;19.026;2022-09-21T01:37:43;98672.69;;;8.99;87.54
34081;BME280;20358;50.272;19.026;2022-09-21T01:40:51;98671.75;;;9.00;87.21
34081;BME280;20358;50.272;19.026;2022-09-21T01:44:05;98668.34;;;8.98;87.20
34081;BME280;20358;50.272;19.026;2022-09-21T01:47:17;98668.34;;;8.98;87.09
34081;BME280;20358;50.272;19.026;2022-09-21T01:50:26;98668.34;;;8.98;87.26
34081;BME280;20358;50.272;19.026;2022-09-21T01:53:37;98675.16;;;9.02;87.33
34081;BME280;20358;50.272;19.026;2022-09-21T01:56:46;98677.69;;;9.04;87.04
34081;BME280;20358;50.272;19.026;2022-09-21T01:59:55;98678.56;;;9.04;86.83
34081;BME280;20358;50.272;19.026;2022-09-21T02:03:21;98678.41;;;9.07;86.87
34081;BME280;20358;50.272;19.026;2022-09-21T02:06:29;98679.41;;;9.05;86.58
34081;BME280;20358;50.272;19.026;2022-09-21T02:09:36;98673.31;;;9.04;87.00
34081;BME280;20358;50.272;19.026;2022-09-21T02:12:42;98681.28;;;9.01;86.62
34081;BME280;20358;50.272;19.026;2022-09-21T02:15:57;98683.91;;;9.01;86.58
34081;BME280;20358;50.272;19.026;2022-09-21T02:19:13;98688.28;;;9.01;86.80
34081;BME280;20358;50.272;19.026;2022-09-21T02:22:30;98689.13;;;9.01;86.77
34081;BME280;20358;50.272;19.026;2022-09-21T02:25:44;98676.06;;;9.01;86.58
34081;BME280;20358;50.272;19.026;2022-09-21T02:28:56;98687.28;;;9.03;86.54
34081;BME280;20358;50.272;19.026;2022-09-21T02:32:08;98686.13;;;9.10;86.83
34081;BME280;20358;50.272;19.026;2022-09-21T02:35:27;98686.78;;;9.15;86.36
34081;BME280;20358;50.272;19.026;2022-09-21T02:38:40;98691.16;;;9.15;86.16
34081;BME280;20358;50.272;19.026;2022-09-21T02:41:59;98689.41;;;9.15;86.22
34081;BME280;20358;50.272;19.026;2022-09-21T02:45:10;98689.31;;;9.17;86.02
34081;BME280;20358;50.272;19.026;2022-09-21T02:48:23;98690.31;;;9.14;85.59
34081;BME280;20358;50.272;19.026;2022-09-21T02:51:36;98699.03;;;9.13;85.66
34081;BME280;20358;50.272;19.026;2022-09-21T02:54:47;98698.34;;;9.10;85.78
34081;BME280;20358;50.272;19.026;2022-09-21T02:57:54;98701.00;;;9.08;86.01
34081;BME280;20358;50.272;19.026;2022-09-21T03:01:03;98710.56;;;9.09;86.17
34081;BME280;20358;50.272;19.026;2022-09-21T03:04:10;98720.13;;;9.10;85.87
34081;BME280;20358;50.272;19.026;2022-09-21T03:07:19;98716.69;;;9.08;85.85
34081;BME280;20358;50.272;19.026;2022-09-21T03:10:25;98727.34;;;9.04;85.67
34081;BME280;20358;50.272;19.026;2022-09-21T03:13:31;98724.81;;;9.02;85.93
34081;BME280;20358;50.272;19.026;2022-09-21T03:16:38;98724.00;;;9.00;85.78
34081;BME280;20358;50.272;19.026;2022-09-21T03:19:45;98724.16;;;8.97;85.86
34081;BME280;20358;50.272;19.026;2022-09-21T03:22:53;98733.03;;;8.93;85.72
34081;BME280;20358;50.272;19.026;2022-09-21T03:25:59;98735.84;;;8.89;86.15
34081;BME280;20358;50.272;19.026;2022-09-21T03:29:05;98730.75;;;8.86;86.39
34081;BME280;20358;50.272;19.026;2022-09-21T03:32:12;98742.91;;;8.87;86.26
34081;BME280;20358;50.272;19.026;2022-09-21T03:35:19;98742.06;;;8.86;86.36
34081;BME280;20358;50.272;19.026;2022-09-21T03:38:30;98751.88;;;8.80;86.02
34081;BME280;20358;50.272;19.026;2022-09-21T03:41:36;98753.94;;;8.72;86.23
34081;BME280;20358;50.272;19.026;2022-09-21T03:44:42;98762.09;;;8.64;86.32
34081;BME280;20358;50.272;19.026;2022-09-21T03:47:48;98759.06;;;8.53;86.78
34081;BME280;20358;50.272;19.026;2022-09-21T03:50:54;98757.38;;;8.52;87.08
34081;BME280;20358;50.272;19.026;2022-09-21T03:54:03;98755.06;;;8.44;87.06
34081;BME280;20358;50.272;19.026;2022-09-21T03:57:09;98750.03;;;8.40;87.29
34081;BME280;20358;50.272;19.026;2022-09-21T04:00:15;98749.94;;;8.41;87.58
34081;BME280;20358;50.272;19.026;2022-09-21T04:03:21;98749.09;;;8.41;87.67
34081;BME280;20358;50.272;19.026;2022-09-21T04:06:27;98761.13;;;8.45;87.82
34081;BME280;20358;50.272;19.026;2022-09-21T04:09:36;98742.75;;;8.48;87.91
34081;BME280;20358;50.272;19.026;2022-09-21T04:12:43;98757.25;;;8.55;88.02
34081;BME280;20358;50.272;19.026;2022-09-21T04:15:49;98749.28;;;8.58;87.85
34081;BME280;20358;50.272;19.026;2022-09-21T04:18:55;98749.94;;;8.63;87.90
34081;BME280;20358;50.272;19.026;2022-09-21T04:22:04;98755.28;;;8.60;87.47
34081;BME280;20358;50.272;19.026;2022-09-21T04:25:13;98762.34;;;8.58;87.72
34081;BME280;20358;50.272;19.026;2022-09-21T04:28:20;98762.34;;;8.58;88.00
34081;BME280;20358;50.272;19.026;2022-09-21T04:31:27;98755.41;;;8.57;88.02
34081;BME280;20358;50.272;19.026;2022-09-21T04:34:34;98757.91;;;8.60;88.15
34081;BME280;20358;50.272;19.026;2022-09-21T04:37:41;98755.19;;;8.63;88.12
34081;BME280;20358;50.272;19.026;2022-09-21T04:40:57;98751.78;;;8.61;87.75
34081;BME280;20358;50.272;19.026;2022-09-21T04:44:04;98753.34;;;8.65;88.45
34081;BME280;20358;50.272;19.026;2022-09-21T04:47:11;98767.06;;;8.70;88.38
34081;BME280;20358;50.272;19.026;2022-09-21T04:50:16;98759.22;;;8.70;88.14
34081;BME280;20358;50.272;19.026;2022-09-21T04:53:24;98764.28;;;8.75;88.32
34081;BME280;20358;50.272;19.026;2022-09-21T04:56:36;98764.28;;;8.75;88.01
34081;BME280;20358;50.272;19.026;2022-09-21T04:59:42;98764.38;;;8.73;88.40
34081;BME280;20358;50.272;19.026;2022-09-21T05:02:48;98764.38;;;8.73;88.48
34081;BME280;20358;50.272;19.026;2022-09-21T05:05:56;98767.75;;;8.75;88.65
34081;BME280;20358;50.272;19.026;2022-09-21T05:09:04;98769.28;;;8.81;88.47
34081;BME280;20358;50.272;19.026;2022-09-21T05:12:29;98784.06;;;8.82;88.15
34081;BME280;20358;50.272;19.026;2022-09-21T05:15:36;98776.56;;;8.73;88.00
34081;BME280;20358;50.272;19.026;2022-09-21T05:18:43;98779.34;;;8.68;88.44
34081;BME280;20358;50.272;19.026;2022-09-21T05:21:49;98781.03;;;8.69;88.51
34081;BME280;20358;50.272;19.026;2022-09-21T05:24:55;98776.63;;;8.71;88.67
34081;BME280;20358;50.272;19.026;2022-09-21T05:28:07;98793.84;;;8.77;88.58
34081;BME280;20358;50.272;19.026;2022-09-21T05:31:29;98779.66;;;8.82;88.68
34081;BME280;20358;50.272;19.026;2022-09-21T05:34:44;98791.81;;;8.83;88.77
34081;BME280;20358;50.272;19.026;2022-09-21T05:37:58;98797.03;;;8.83;88.48
34081;BME280;20358;50.272;19.026;2022-09-21T05:41:08;98807.63;;;8.80;88.50
34081;BME280;20358;50.272;19.026;2022-09-21T05:44:18;98799.19;;;8.74;88.31
34081;BME280;20358;50.272;19.026;2022-09-21T05:47:31;98802.06;;;8.66;88.93
34081;BME280;20358;50.272;19.026;2022-09-21T05:50:55;98805.47;;;8.68;89.52
34081;BME280;20358;50.272;19.026;2022-09-21T05:54:09;98797.81;;;8.64;89.54
34081;BME280;20358;50.272;19.026;2022-09-21T05:57:27;98801.56;;;8.56;89.64
34081;BME280;20358;50.272;19.026;2022-09-21T06:00:43;98799.03;;;8.55;90.03
34081;BME280;20358;50.272;19.026;2022-09-21T06:03:55;98793.81;;;8.55;90.35
34081;BME280;20358;50.272;19.026;2022-09-21T06:07:04;98805.78;;;8.61;90.37
34081;BME280;20358;50.272;19.026;2022-09-21T06:10:12;98808.44;;;8.59;90.51
34081;BME280;20358;50.272;19.026;2022-09-21T06:13:18;98803.88;;;8.64;90.77
34081;BME280;20358;50.272;19.026;2022-09-21T06:16:35;98818.84;;;8.82;90.79
34081;BME280;20358;50.272;19.026;2022-09-21T06:19:42;98815.22;;;8.86;89.57
34081;BME280;20358;50.272;19.026;2022-09-21T06:22:49;98797.50;;;8.93;89.81
34081;BME280;20358;50.272;19.026;2022-09-21T06:25:54;98799.88;;;8.99;89.10
34081;BME280;20358;50.272;19.026;2022-09-21T06:29:10;98797.47;;;8.94;89.03
34081;BME280;20358;50.272;19.026;2022-09-21T06:32:19;98802.06;;;8.88;89.10
34081;BME280;20358;50.272;19.026;2022-09-21T06:35:26;98808.03;;;8.91;89.39
34081;BME280;20358;50.272;19.026;2022-09-21T06:38:31;98803.78;;;8.89;89.55
34081;BME280;20358;50.272;19.026;2022-09-21T06:41:39;98814.97;;;8.92;89.48
34081;BME280;20358;50.272;19.026;2022-09-21T06:44:44;98801.72;;;8.97;90.20
34081;BME280;20358;50.272;19.026;2022-09-21T06:47:54;98818.75;;;9.05;88.71
34081;BME280;20358;50.272;19.026;2022-09-21T06:51:01;98824.81;;;9.07;89.46
34081;BME280;20358;50.272;19.026;2022-09-21T06:54:08;98824.41;;;9.16;88.68
34081;BME280;20358;50.272;19.026;2022-09-21T06:57:14;98833.84;;;9.21;89.21
34081;BME280;20358;50.272;19.026;2022-09-21T07:00:20;98834.38;;;9.29;88.57
34081;BME280;20358;50.272;19.026;2022-09-21T07:03:29;98830.44;;;9.39;89.35
34081;BME280;20358;50.272;19.026;2022-09-21T07:06:36;98840.63;;;9.45;88.37
34081;BME280;20358;50.272;19.026;2022-09-21T07:09:42;98840.63;;;9.45;87.56
34081;BME280;20358;50.272;19.026;2022-09-21T07:13:08;98847.25;;;9.33;87.96
34081;BME280;20358;50.272;19.026;2022-09-21T07:16:14;98853.38;;;9.32;88.04
34081;BME280;20358;50.272;19.026;2022-09-21T07:19:23;98857.75;;;9.32;88.26
34081;BME280;20358;50.272;19.026;2022-09-21T07:22:29;98855.28;;;9.29;87.61
34081;BME280;20358;50.272;19.026;2022-09-21T07:25:35;98844.31;;;9.21;88.04
34081;BME280;20358;50.272;19.026;2022-09-21T07:33:06;98851.38;;;9.39;89.18
34081;BME280;20358;50.272;19.026;2022-09-21T07:36:14;98859.03;;;9.43;87.82
34081;BME280;20358;50.272;19.026;2022-09-21T07:39:21;98848.69;;;9.40;87.38
34081;BME280;20358;50.272;19.026;2022-09-21T07:42:26;98858.28;;;9.40;88.10
34081;BME280;20358;50.272;19.026;2022-09-21T07:45:33;98857.31;;;9.42;88.28
34081;BME280;20358;50.272;19.026;2022-09-21T07:48:39;98869.38;;;9.46;88.05
34081;BME280;20358;50.272;19.026;2022-09-21T07:51:48;98865.09;;;9.44;87.91
34081;BME280;20358;50.272;19.026;2022-09-21T07:54:54;98864.72;;;9.53;88.27
34081;BME280;20358;50.272;19.026;2022-09-21T07:58:02;98868.72;;;9.61;87.88
34081;BME280;20358;50.272;19.026;2022-09-21T08:01:24;98882.56;;;9.63;87.77
34081;BME280;20358;50.272;19.026;2022-09-21T08:04:32;98876.59;;;9.60;86.75
34081;BME280;20358;50.272;19.026;2022-09-21T08:07:40;98884.28;;;9.64;87.33
34081;BME280;20358;50.272;19.026;2022-09-21T08:10:47;98878.91;;;9.67;87.36
34081;BME280;20358;50.272;19.026;2022-09-21T08:13:56;98882.31;;;9.69;86.92
34081;BME280;20358;50.272;19.026;2022-09-21T08:17:04;98884.31;;;9.63;87.12
34081;BME280;20358;50.272;19.026;2022-09-21T08:20:09;98874.91;;;9.59;87.91
34081;BME280;20358;50.272;19.026;2022-09-21T08:23:19;98889.19;;;9.52;87.79
34081;BME280;20358;50.272;19.026;2022-09-21T08:26:24;98876.34;;;9.46;88.77
34081;BME280;20358;50.272;19.026;2022-09-21T08:29:31;98883.22;;;9.48;89.47
34081;BME280;20358;50.272;19.026;2022-09-21T08:32:37;98891.59;;;9.56;89.91
34081;BME280;20358;50.272;19.026;2022-09-21T08:35:54;98890.63;;;9.59;89.35
34081;BME280;20358;50.272;19.026;2022-09-21T08:39:06;98900.09;;;9.61;89.16
34081;BME280;20358;50.272;19.026;2022-09-21T08:42:23;98892.06;;;9.66;89.58
34081;BME280;20358;50.272;19.026;2022-09-21T08:45:39;98888.41;;;9.70;89.30
34081;BME280;20358;50.272;19.026;2022-09-21T08:48:52;98907.63;;;9.69;89.63
34081;BME280;20358;50.272;19.026;2022-09-21T08:52:01;98899.91;;;9.66;89.04
34081;BME280;20358;50.272;19.026;2022-09-21T08:55:17;98902.66;;;9.63;89.36
34081;BME280;20358;50.272;19.026;2022-09-21T08:58:24;98897.16;;;9.69;90.09
34081;BME280;20358;50.272;19.026;2022-09-21T09:01:38;98898.59;;;9.76;89.42
34081;BME280;20358;50.272;19.026;2022-09-21T09:04:56;98891.13;;;9.87;89.78
34081;BME280;20358;50.272;19.026;2022-09-21T09:08:20;98888.97;;;9.97;89.70
34081;BME280;20358;50.272;19.026;2022-09-21T09:11:45;98899.09;;;10.04;88.88
34081;BME280;20358;50.272;19.026;2022-09-21T09:15:14;98890.06;;;10.11;89.05
34081;BME280;20358;50.272;19.026;2022-09-21T09:18:29;98890.38;;;10.24;88.66
34081;BME280;20358;50.272;19.026;2022-09-21T09:21:45;98883.63;;;10.38;87.98
34081;BME280;20358;50.272;19.026;2022-09-21T09:24:54;98892.34;;;10.58;87.91
34081;BME280;20358;50.272;19.026;2022-09-21T09:28:22;98904.47;;;10.60;85.38
34081;BME280;20358;50.272;19.026;2022-09-21T09:31:34;98905.84;;;10.49;85.96
34081;BME280;20358;50.272;19.026;2022-09-21T09:34:47;98898.75;;;10.51;85.79
34081;BME280;20358;50.272;19.026;2022-09-21T09:37:59;98901.47;;;10.68;86.30
34081;BME280;20358;50.272;19.026;2022-09-21T09:41:19;98890.56;;;10.77;85.39
34081;BME280;20358;50.272;19.026;2022-09-21T09:44:47;98896.78;;;10.93;85.05
34081;BME280;20358;50.272;19.026;2022-09-21T09:48:09;98893.38;;;11.10;84.42
34081;BME280;20358;50.272;19.026;2022-09-21T09:51:22;98899.59;;;11.07;83.32
34081;BME280;20358;50.272;19.026;2022-09-21T09:54:33;98893.38;;;11.10;82.55
34081;BME280;20358;50.272;19.026;2022-09-21T09:57:39;98904.84;;;11.07;81.18
34081;BME280;20358;50.272;19.026;2022-09-21T10:00:51;98899.59;;;11.07;82.20
34081;BME280;20358;50.272;19.026;2022-09-21T10:04:04;98895.94;;;11.28;82.43
34081;BME280;20358;50.272;19.026;2022-09-21T10:07:17;98897.97;;;11.40;80.14
34081;BME280;20358;50.272;19.026;2022-09-21T10:10:29;98901.06;;;11.48;79.75
34081;BME280;20358;50.272;19.026;2022-09-21T10:13:38;98890.22;;;11.54;79.62
34081;BME280;20358;50.272;19.026;2022-09-21T10:17:22;98900.44;;;11.60;78.33
34081;BME280;20358;50.272;19.026;2022-09-21T10:20:29;98891.47;;;11.47;78.06
34081;BME280;20358;50.272;19.026;2022-09-21T10:23:36;98890.09;;;11.40;78.53
34081;BME280;20358;50.272;19.026;2022-09-21T10:26:46;98893.94;;;11.50;79.07
34081;BME280;20358;50.272;19.026;2022-09-21T10:29:55;98883.16;;;11.56;77.91
34081;BME280;20358;50.272;19.026;2022-09-21T10:33:17;98890.75;;;11.80;77.94
34081;BME280;20358;50.272;19.026;2022-09-21T10:36:30;98883.00;;;11.94;76.87
34081;BME280;20358;50.272;19.026;2022-09-21T10:39:45;98878.94;;;12.04;75.75
34081;BME280;20358;50.272;19.026;2022-09-21T10:42:53;98904.91;;;12.10;75.03
34081;BME280;20358;50.272;19.026;2022-09-21T10:46:03;98883.03;;;12.09;75.13
34081;BME280;20358;50.272;19.026;2022-09-21T10:49:19;98876.63;;;12.15;74.01
34081;BME280;20358;50.272;19.026;2022-09-21T10:52:32;98881.03;;;12.14;74.11
34081;BME280;20358;50.272;19.026;2022-09-21T10:55:56;98883.09;;;12.25;74.08
34081;BME280;20358;50.272;19.026;2022-09-21T10:59:23;98876.22;;;12.22;73.87
34081;BME280;20358;50.272;19.026;2022-09-21T11:02:34;98878.38;;;12.32;74.44
34081;BME280;20358;50.272;19.026;2022-09-21T11:20:30;98888.41;;;12.56;74.01
34081;BME280;20358;50.272;19.026;2022-09-21T11:23:48;98874.25;;;12.74;72.40
34081;BME280;20358;50.272;19.026;2022-09-21T11:27:02;98862.13;;;12.87;73.70
34081;BME280;20358;50.272;19.026;2022-09-21T11:30:14;98871.13;;;13.15;73.15
34081;BME280;20358;50.272;19.026;2022-09-21T11:33:32;98883.75;;;13.24;70.39
34081;BME280;20358;50.272;19.026;2022-09-21T11:36:54;98863.66;;;13.23;70.71
34081;BME280;20358;50.272;19.026;2022-09-21T11:40:13;98865.16;;;13.27;70.43
34081;BME280;20358;50.272;19.026;2022-09-21T11:43:36;98859.19;;;13.39;71.04
34081;BME280;20358;50.272;19.026;2022-09-21T11:46:51;98872.16;;;13.42;69.74
34081;BME280;20358;50.272;19.026;2022-09-21T12:08:17;98860.16;;;13.52;69.93
34081;BME280;20358;50.272;19.026;2022-09-21T12:11:35;98850.13;;;13.59;68.85
34081;BME280;20358;50.272;19.026;2022-09-21T12:14:48;98858.59;;;13.64;68.66
34081;BME280;20358;50.272;19.026;2022-09-21T12:18:04;98861.00;;;13.53;68.25
34081;BME280;20358;50.272;19.026;2022-09-21T12:21:19;98850.00;;;13.46;68.18
34081;BME280;20358;50.272;19.026;2022-09-21T12:24:34;98864.44;;;13.39;68.15
34081;BME280;20358;50.272;19.026;2022-09-21T12:27:47;98844.59;;;13.33;68.78
34081;BME280;20358;50.272;19.026;2022-09-21T12:30:58;98848.13;;;13.48;69.09
34081;BME280;20358;50.272;19.026;2022-09-21T12:34:10;98835.19;;;13.59;68.82
34081;BME280;20358;50.272;19.026;2022-09-21T12:37:23;98827.28;;;13.59;68.46
34081;BME280;20358;50.272;19.026;2022-09-21T12:40:35;98836.97;;;13.73;68.86
34081;BME280;20358;50.272;19.026;2022-09-21T12:43:50;98822.22;;;13.70;68.80
34081;BME280;20358;50.272;19.026;2022-09-21T12:47:04;98817.03;;;13.83;67.86
34081;BME280;20358;50.272;19.026;2022-09-21T12:50:18;98821.19;;;13.73;68.19
34081;BME280;20358;50.272;19.026;2022-09-21T12:53:28;98823.16;;;13.83;68.75
34081;BME280;20358;50.272;19.026;2022-09-21T12:56:41;98826.47;;;13.87;67.76
34081;BME280;20358;50.272;19.026;2022-09-21T12:59:55;98818.66;;;13.99;66.00
34081;BME280;20358;50.272;19.026;2022-09-21T13:03:12;98812.66;;;13.97;66.61
34081;BME280;20358;50.272;19.026;2022-09-21T13:06:41;98814.75;;;14.06;66.74
34081;BME280;20358;50.272;19.026;2022-09-21T13:09:55;98822.66;;;14.21;66.83
34081;BME280;20358;50.272;19.026;2022-09-21T13:13:04;98806.81;;;14.35;66.37
34081;BME280;20358;50.272;19.026;2022-09-21T13:16:26;98811.16;;;14.36;64.24
34081;BME280;20358;50.272;19.026;2022-09-21T13:19:33;98801.38;;;14.24;64.12
34081;BME280;20358;50.272;19.026;2022-09-21T13:22:41;98803.84;;;14.27;65.10
34081;BME280;20358;50.272;19.026;2022-09-21T13:25:49;98813.03;;;14.34;64.52
34081;BME280;20358;50.272;19.026;2022-09-21T13:29:25;98815.31;;;14.26;64.40
34081;BME280;20358;50.272;19.026;2022-09-21T13:32:53;98805.13;;;14.20;64.84
34081;BME280;20358;50.272;19.026;2022-09-21T13:36:03;98807.63;;;14.08;64.75
34081;BME280;20358;50.272;19.026;2022-09-21T13:39:17;98807.66;;;13.93;65.11
34081;BME280;20358;50.272;19.026;2022-09-21T13:42:44;98796.63;;;13.86;65.51
34081;BME280;20358;50.272;19.026;2022-09-21T13:45:55;98792.88;;;13.90;66.24
34081;BME280;20358;50.272;19.026;2022-09-21T13:49:15;98797.94;;;13.93;65.89
34081;BME280;20358;50.272;19.026;2022-09-21T13:52:36;98800.69;;;13.92;65.91
34081;BME280;20358;50.272;19.026;2022-09-21T13:55:49;98794.56;;;13.91;66.23
34081;BME280;20358;50.272;19.026;2022-09-21T13:58:57;98802.66;;;13.88;65.38
34081;BME280;20358;50.272;19.026;2022-09-21T14:02:23;98800.22;;;13.71;65.89
34081;BME280;20358;50.272;19.026;2022-09-21T14:05:39;98802.34;;;13.50;67.25
34081;BME280;20358;50.272;19.026;2022-09-21T14:08:50;98805.03;;;13.35;68.07
34081;BME280;20358;50.272;19.026;2022-09-21T14:12:02;98801.41;;;13.22;68.62
34081;BME280;20358;50.272;19.026;2022-09-21T14:15:35;98807.97;;;13.15;68.54
34081;BME280;20358;50.272;19.026;2022-09-21T14:18:41;98797.13;;;13.05;69.07
34081;BME280;20358;50.272;19.026;2022-09-21T14:25:47;98787.63;;;12.87;70.61
34081;BME280;20358;50.272;19.026;2022-09-21T14:28:54;98785.59;;;12.76;71.21
34081;BME280;20358;50.272;19.026;2022-09-21T14:32:04;98778.84;;;12.72;71.88
34081;BME280;20358;50.272;19.026;2022-09-21T14:35:17;98779.75;;;12.71;71.90
34081;BME280;20358;50.272;19.026;2022-09-21T14:38:26;98779.97;;;12.68;72.58
34081;BME280;20358;50.272;19.026;2022-09-21T14:41:41;98777.81;;;12.75;73.20
34081;BME280;20358;50.272;19.026;2022-09-21T14:44:49;98778.97;;;13.01;73.66
34081;BME280;20358;50.272;19.026;2022-09-21T14:48:04;98789.13;;;13.22;71.95
34081;BME280;20358;50.272;19.026;2022-09-21T14:51:23;98782.09;;;13.37;72.27
34081;BME280;20358;50.272;19.026;2022-09-21T14:54:40;98786.44;;;13.52;71.90
34081;BME280;20358;50.272;19.026;2022-09-21T14:58:03;98804.63;;;13.57;69.29
34081;BME280;20358;50.272;19.026;2022-09-21T15:04:50;98774.38;;;13.34;67.26
34081;BME280;20358;50.272;19.026;2022-09-21T15:08:22;98785.84;;;13.33;67.77
34081;BME280;20358;50.272;19.026;2022-09-21T15:11:55;98796.34;;;13.19;66.27
34081;BME280;20358;50.272;19.026;2022-09-21T15:15:22;98797.50;;;12.99;66.47
34081;BME280;20358;50.272;19.026;2022-09-21T15:18:31;98810.06;;;12.78;66.32
34081;BME280;20358;50.272;19.026;2022-09-21T15:21:42;98799.19;;;12.69;67.26
34081;BME280;20358;50.272;19.026;2022-09-21T15:24:49;98807.00;;;12.70;67.68
34081;BME280;20358;50.272;19.026;2022-09-21T15:27:56;98806.25;;;12.68;67.59
34081;BME280;20358;50.272;19.026;2022-09-21T15:31:05;98817.53;;;12.70;67.97
34081;BME280;20358;50.272;19.026;2022-09-21T15:34:13;98806.16;;;12.70;68.10
34081;BME280;20358;50.272;19.026;2022-09-21T15:37:19;98817.75;;;12.66;68.20
34081;BME280;20358;50.272;19.026;2022-09-21T15:40:30;98826.00;;;12.60;68.95
34081;BME280;20358;50.272;19.026;2022-09-21T15:43:39;98837.00;;;12.35;70.66
34081;BME280;20358;50.272;19.026;2022-09-21T15:46:51;98831.38;;;12.10;71.58
34081;BME280;20358;50.272;19.026;2022-09-21T15:50:03;98848.41;;;11.86;73.37
34081;BME280;20358;50.272;19.026;2022-09-21T15:53:14;98822.94;;;11.71;74.03
34081;BME280;20358;50.272;19.026;2022-09-21T15:56:25;98837.59;;;11.57;74.78
34081;BME280;20358;50.272;19.026;2022-09-21T15:59:32;98834.50;;;11.49;75.00
34081;BME280;20358;50.272;19.026;2022-09-21T16:02:48;98836.66;;;11.41;75.37
34081;BME280;20358;50.272;19.026;2022-09-21T16:05:56;98835.28;;;11.34;75.95
34081;BME280;20358;50.272;19.026;2022-09-21T16:09:31;98837.16;;;11.32;76.28
34081;BME280;20358;50.272;19.026;2022-09-21T16:12:42;98841.78;;;11.27;76.59
34081;BME280;20358;50.272;19.026;2022-09-21T16:15:59;98839.28;;;11.24;76.71
34081;BME280;20358;50.272;19.026;2022-09-21T16:19:07;98834.34;;;11.18;77.24
34081;BME280;20358;50.272;19.026;2022-09-21T16:22:15;98835.53;;;11.13;77.34
34081;BME280;20358;50.272;19.026;2022-09-21T16:25:28;98833.81;;;11.12;77.48
34081;BME280;20358;50.272;19.026;2022-09-21T16:28:37;98840.97;;;11.08;77.56
34081;BME280;20358;50.272;19.026;2022-09-21T16:31:45;98840.34;;;11.03;77.73
34081;BME280;20358;50.272;19.026;2022-09-21T16:35:20;98852.53;;;11.04;78.22
34081;BME280;20358;50.272;19.026;2022-09-21T16:38:27;98847.59;;;10.98;78.51
34081;BME280;20358;50.272;19.026;2022-09-21T16:41:37;98854.69;;;10.96;78.89
34081;BME280;20358;50.272;19.026;2022-09-21T16:44:44;98856.53;;;10.94;78.85
34081;BME280;20358;50.272;19.026;2022-09-21T16:47:50;98856.69;;;10.91;79.37
34081;BME280;20358;50.272;19.026;2022-09-21T16:51:00;98861.22;;;10.87;79.33
34081;BME280;20358;50.272;19.026;2022-09-21T16:54:07;98860.53;;;10.84;80.00
34081;BME280;20358;50.272;19.026;2022-09-21T16:57:14;98859.94;;;10.77;79.87
34081;BME280;20358;50.272;19.026;2022-09-21T17:00:20;98857.56;;;10.73;80.22
34081;BME280;20358;50.272;19.026;2022-09-21T17:03:27;98862.09;;;10.69;80.13
34081;BME280;20358;50.272;19.026;2022-09-21T17:06:35;98864.94;;;10.65;80.25
34081;BME280;20358;50.272;19.026;2022-09-21T17:09:43;98867.81;;;10.59;80.07
34081;BME280;20358;50.272;19.026;2022-09-21T17:12:49;98861.13;;;10.53;80.11
34081;BME280;20358;50.272;19.026;2022-09-21T17:15:56;98874.41;;;10.49;79.92
34081;BME280;20358;50.272;19.026;2022-09-21T17:19:05;98872.88;;;10.45;79.79
34081;BME280;20358;50.272;19.026;2022-09-21T17:22:14;98871.28;;;10.40;79.68
34081;BME280;20358;50.272;19.026;2022-09-21T17:25:21;98877.53;;;10.38;79.57
34081;BME280;20358;50.272;19.026;2022-09-21T17:28:28;98872.59;;;10.32;79.48
34081;BME280;20358;50.272;19.026;2022-09-21T17:31:34;98880.59;;;10.27;79.53
34081;BME280;20358;50.272;19.026;2022-09-21T17:34:41;98879.94;;;10.22;79.63
34081;BME280;20358;50.272;19.026;2022-09-21T17:37:50;98883.63;;;10.18;79.86
34081;BME280;20358;50.272;19.026;2022-09-21T17:40:57;98889.00;;;10.15;80.25
34081;BME280;20358;50.272;19.026;2022-09-21T17:44:09;98895.31;;;10.11;80.32
34081;BME280;20358;50.272;19.026;2022-09-21T17:47:21;98891.19;;;10.06;80.68
34081;BME280;20358;50.272;19.026;2022-09-21T17:50:29;98899.38;;;9.98;80.80
34081;BME280;20358;50.272;19.026;2022-09-21T17:53:39;98910.69;;;9.99;81.21
34081;BME280;20358;50.272;19.026;2022-09-21T17:56:47;98909.13;;;9.95;81.35
34081;BME280;20358;50.272;19.026;2022-09-21T18:00:03;98904.88;;;9.92;81.49
34081;BME280;20358;50.272;19.026;2022-09-21T18:03:19;98908.41;;;9.91;81.82
34081;BME280;20358;50.272;19.026;2022-09-21T18:06:27;98918.94;;;9.90;82.00
34081;BME280;20358;50.272;19.026;2022-09-21T18:09:37;98905.13;;;9.86;82.08